Webcam LFGB

En direct depuis les locaux de l'Aéro-Club du Haut-Rhin, observez la piste 20/02 comme si vous y étiez !

Rejoignez-nous

METAR 2019/11/13 10:30 LFSB 131030Z 27007KT 9999 FEW023 BKN060 06/02 Q1006 NOSIG
TAF 2019/11/13 06:21 TAF LFSB 130500Z 1306/1406 24003KT 9999 BKN030 PROB40 TEMPO 1306/1308 3000 BR OVC003 PROB40 TEMPO 1319/1324 4000 BR PROB30 TEMPO 1319/1323 BKN012